F/V Adeline Stephen — FGUF — position and weather

sailwx.info

Track history (hours):
 
Tides and Currents Weather Stations Pressure Air Temp Water Temp Dewpoint Dewpoint Depression Visibility Wind Speed Wind Dir Waves Ship Positions

F/V Adeline Stephen

Last reported at 2016-Jun-16 10:13 UTC. Time now 2016-Jun-30 17:51 UTC.
Position N 47°43' W 003°22'.
Warning: this ship's position is 14 days out of date.

Length 18 m.

Type: Fishing. MMSI: 228929000.

Date/timePositionNaut miles runAvg speedWind from/ knotsBaromVisibWave heightAir tempDewpointWater temp
2016-Jun-16 10:13N 47°43' W 003°22'6 9.2
2016-Jun-16 09:34N 47°37' W 003°18'10 9.6
2016-Jun-16 08:33N 47°30' W 003°10'9 8.6
2016-Jun-16 07:33N 47°26' W 002°59'10 9.4
2016-Jun-16 06:33N 47°23' W 002°45'9 9.4
2016-Jun-16 05:33N 47°21' W 002°32'1 0.7
2016-Jun-16 04:29N 47°21' W 002°31'0 0.0
2016-Jun-16 03:33N 47°21' W 002°31'3 3.1
2016-Jun-16 02:33N 47°19' W 002°34'9 8.8
2016-Jun-16 01:33N 47°12' W 002°42'9 9.2
2016-Jun-16 00:33N 47°06' W 002°52'10 9.1
2016-Jun-15 23:30N 46°59' W 003°03'  
2016-Jun-13 06:07N 47°01' W 002°51'5 8.7
2016-Jun-13 05:33N 47°05' W 002°47'9 8.6
2016-Jun-13 04:33N 47°12' W 002°40'9 8.9
2016-Jun-13 03:31N 47°20' W 002°32'1 1.2
2016-Jun-13 02:14N 47°21' W 002°31'0 0.0
2016-Jun-13 01:33N 47°21' W 002°31'0 0.0
2016-Jun-13 00:31N 47°21' W 002°31'2 1.6
2016-Jun-12 23:34N 47°20' W 002°32'9 8.5
2016-Jun-12 22:33N 47°13' W 002°40'9 8.9
2016-Jun-12 21:33N 47°06' W 002°48'9 8.6
2016-Jun-12 20:33N 46°59' W 002°56'7 0.1
2016-Jun-10 19:33N 47°05' W 002°52'6 6.5
2016-Jun-10 18:33N 47°10' W 002°45'7 6.6
2016-Jun-10 17:31N 47°15' W 002°38'7 7.2
2016-Jun-10 16:31N 47°20' W 002°31'1 0.1
2016-Jun-10 08:33N 47°21' W 002°31'0 0.0
2016-Jun-10 07:33N 47°21' W 002°31'0 0.1
2016-Jun-10 06:31N 47°21' W 002°31'0 0.0
2016-Jun-10 05:32N 47°21' W 002°31'3 1.0
2016-Jun-10 02:33N 47°19' W 002°34'9 9.1
2016-Jun-10 01:34N 47°12' W 002°43'9 8.6
2016-Jun-10 00:33N 47°06' W 002°52'9 8.6
2016-Jun-09 23:33N 47°00' W 003°02'8 8.3
2016-Jun-09 22:33N 46°55' W 003°11'10 8.6
2016-Jun-09 21:20N 46°48' W 003°23'18 0.5
2016-Jun-08 09:25N 46°53' W 002°57'910.0
2016-Jun-08 08:32N 47°00' W 002°50'9 9.5
2016-Jun-08 07:32N 47°08' W 002°43'9 9.0
2016-Jun-08 06:33N 47°16' W 002°37'6 6.2
2016-Jun-08 05:32N 47°21' W 002°31'0 0.1
2016-Jun-08 04:33N 47°21' W 002°31'0 0.0
2016-Jun-08 03:33N 47°21' W 002°31'0 0.0
2016-Jun-08 02:33N 47°21' W 002°31'4 4.4
2016-Jun-08 01:33N 47°18' W 002°35'9 9.1
2016-Jun-08 00:33N 47°10' W 002°42'9 8.9
2016-Jun-07 23:33N 47°02' W 002°49'8 8.2
2016-Jun-07 22:33N 46°55' W 002°55'8 8.0
2016-Jun-07 21:33N 46°48' W 003°01'17 8.3
2016-Jun-07 19:33N 46°34' W 003°13'32 8.0
2016-Jun-07 15:33N 46°07' W 003°38'4 3.8
2016-Jun-07 14:33N 46°06' W 003°43'4 3.5
2016-Jun-07 13:18N 46°09' W 003°46'  
Track history (hours):
 
Tides and Currents Weather Stations Pressure Air Temp Water Temp Dewpoint Dewpoint Depression Visibility Wind Speed Wind Dir Waves Ship Positions

F/V Adeline Stephen

Last reported at 2016-Jun-16 10:13 UTC. Time now 2016-Jun-30 17:51 UTC.
Position N 47°43' W 003°22'.
Warning: this ship's position is 14 days out of date.

Length 18 m.

Type: Fishing. MMSI: 228929000.

Date/timePositionNaut miles runAvg speedWind from/ knotsBaromVisibWave heightAir tempDewpointWater temp
2016-Jun-16 10:13N 47°43' W 003°22'6 9.2
2016-Jun-16 09:34N 47°37' W 003°18'10 9.6
2016-Jun-16 08:33N 47°30' W 003°10'9 8.6
2016-Jun-16 07:33N 47°26' W 002°59'10 9.4
2016-Jun-16 06:33N 47°23' W 002°45'9 9.4
2016-Jun-16 05:33N 47°21' W 002°32'1 0.7
2016-Jun-16 04:29N 47°21' W 002°31'0 0.0
2016-Jun-16 03:33N 47°21' W 002°31'3 3.1
2016-Jun-16 02:33N 47°19' W 002°34'9 8.8
2016-Jun-16 01:33N 47°12' W 002°42'9 9.2
2016-Jun-16 00:33N 47°06' W 002°52'10 9.1
2016-Jun-15 23:30N 46°59' W 003°03'  
2016-Jun-13 06:07N 47°01' W 002°51'5 8.7
2016-Jun-13 05:33N 47°05' W 002°47'9 8.6
2016-Jun-13 04:33N 47°12' W 002°40'9 8.9
2016-Jun-13 03:31N 47°20' W 002°32'1 1.2
2016-Jun-13 02:14N 47°21' W 002°31'0 0.0
2016-Jun-13 01:33N 47°21' W 002°31'0 0.0
2016-Jun-13 00:31N 47°21' W 002°31'2 1.6
2016-Jun-12 23:34N 47°20' W 002°32'9 8.5
2016-Jun-12 22:33N 47°13' W 002°40'9 8.9
2016-Jun-12 21:33N 47°06' W 002°48'9 8.6
2016-Jun-12 20:33N 46°59' W 002°56'7 0.1
2016-Jun-10 19:33N 47°05' W 002°52'6 6.5
2016-Jun-10 18:33N 47°10' W 002°45'7 6.6
2016-Jun-10 17:31N 47°15' W 002°38'7 7.2
2016-Jun-10 16:31N 47°20' W 002°31'1 0.1
2016-Jun-10 08:33N 47°21' W 002°31'0 0.0
2016-Jun-10 07:33N 47°21' W 002°31'0 0.1
2016-Jun-10 06:31N 47°21' W 002°31'0 0.0
2016-Jun-10 05:32N 47°21' W 002°31'3 1.0
2016-Jun-10 02:33N 47°19' W 002°34'9 9.1
2016-Jun-10 01:34N 47°12' W 002°43'9 8.6
2016-Jun-10 00:33N 47°06' W 002°52'9 8.6
2016-Jun-09 23:33N 47°00' W 003°02'8 8.3
2016-Jun-09 22:33N 46°55' W 003°11'10 8.6
2016-Jun-09 21:20N 46°48' W 003°23'18 0.5
2016-Jun-08 09:25N 46°53' W 002°57'910.0
2016-Jun-08 08:32N 47°00' W 002°50'9 9.5
2016-Jun-08 07:32N 47°08' W 002°43'9 9.0
2016-Jun-08 06:33N 47°16' W 002°37'6 6.2
2016-Jun-08 05:32N 47°21' W 002°31'0 0.1
2016-Jun-08 04:33N 47°21' W 002°31'0 0.0
2016-Jun-08 03:33N 47°21' W 002°31'0 0.0
2016-Jun-08 02:33N 47°21' W 002°31'4 4.4
2016-Jun-08 01:33N 47°18' W 002°35'9 9.1
2016-Jun-08 00:33N 47°10' W 002°42'9 8.9
2016-Jun-07 23:33N 47°02' W 002°49'8 8.2
2016-Jun-07 22:33N 46°55' W 002°55'8 8.0
2016-Jun-07 21:33N 46°48' W 003°01'17 8.3
2016-Jun-07 19:33N 46°34' W 003°13'32 8.0
2016-Jun-07 15:33N 46°07' W 003°38'4 3.8
2016-Jun-07 14:33N 46°06' W 003°43'4 3.5
2016-Jun-07 13:18N 46°09' W 003°46'  

Dump ship's entire track history